Time;durP1;ratioP1;P1;durP2;ratioP2;P2;SDS_P1;SDS_P2;PMS_P1;PMS_P2;Temp;Humidity;BMP_temperature;BMP_pressure;BME280_temperature;BME280_humidity;BME280_pressure;Samples;Min_cycle;Max_cycle;Signal;HPM_P1;HPM_P2
2022/01/16 00:00:40;;;;;;;33.45;14.93;;;;;;;2.43;54.94;102150.47;5007154;28;20061;-68
2022/01/16 00:05:56;;;;;;;33.20;13.65;;;;;;;2.80;53.99;102136.34;5008922;28;20551;-69
2022/01/16 00:08:22;;;;;;;34.67;14.20;;;;;;;1.92;56.52;102129.91;5006653;28;20045;-70
2022/01/16 00:10:48;;;;;;;37.35;13.82;;;;;;;2.59;55.11;102124.00;5026026;28;20040;-70
2022/01/16 00:13:16;;;;;;;34.08;14.30;;;;;;;2.73;54.50;102114.75;5010683;28;20037;-70
2022/01/16 00:15:44;;;;;;;37.10;14.35;;;;;;;1.96;56.33;102117.94;5008257;28;20040;-70
2022/01/16 00:18:23;;;;;;;30.85;12.75;;;;;;;2.25;55.71;102123.56;5003964;28;20037;-70
2022/01/16 00:20:49;;;;;;;28.60;13.05;;;;;;;2.46;54.49;102119.53;5008889;28;20037;-71
2022/01/16 00:23:25;;;;;;;35.00;14.25;;;;;;;2.77;53.57;102128.56;5008451;28;20048;-71
2022/01/16 00:25:54;;;;;;;34.30;13.63;;;;;;;1.83;55.64;102131.47;5007991;28;20047;-71
2022/01/16 00:28:21;;;;;;;30.80;13.43;;;;;;;1.38;56.43;102142.69;5007821;28;20054;-71
2022/01/16 00:30:47;;;;;;;38.75;14.35;;;;;;;1.39;56.60;102142.69;5012863;28;20056;-70
2022/01/16 00:33:13;;;;;;;37.28;14.13;;;;;;;1.87;55.24;102139.28;5006558;28;21432;-71
2022/01/16 00:35:38;;;;;;;52.63;16.08;;;;;;;2.26;54.18;102130.44;5005205;28;20581;-70
2022/01/16 00:38:05;;;;;;;38.55;13.05;;;;;;;1.54;55.48;102147.31;5022577;28;20029;-71
2022/01/16 00:40:30;;;;;;;39.17;13.43;;;;;;;1.87;54.74;102143.59;4992907;28;20384;-70
2022/01/16 00:42:59;;;;;;;42.83;15.38;;;;;;;2.28;54.22;102144.22;5019682;28;20561;-70
2022/01/16 00:45:25;;;;;;;45.17;15.85;;;;;;;2.44;54.11;102136.69;5006071;28;20385;-70
2022/01/16 00:47:51;;;;;;;41.03;15.15;;;;;;;2.41;53.93;102131.50;5013180;28;20037;-70
2022/01/16 00:50:18;;;;;;;42.35;15.35;;;;;;;2.73;53.54;102135.41;5005689;28;20042;-71
2022/01/16 00:52:44;;;;;;;42.28;16.13;;;;;;;1.93;55.90;102134.25;5005985;28;20495;-71
2022/01/16 00:55:10;;;;;;;41.30;14.90;;;;;;;1.87;55.58;102130.69;5009975;28;20453;-71
2022/01/16 00:57:37;;;;;;;41.95;15.05;;;;;;;1.51;56.47;102119.78;5008054;28;20046;-70
2022/01/16 01:00:05;;;;;;;40.45;14.95;;;;;;;1.66;55.80;102102.84;5004160;28;20309;-70
2022/01/16 01:02:31;;;;;;;36.83;14.00;;;;;;;1.91;54.51;102120.47;5020294;28;20025;-72
2022/01/16 01:04:58;;;;;;;34.40;13.68;;;;;;;2.18;53.26;102119.16;5006586;28;20106;-70
2022/01/16 01:07:24;;;;;;;36.63;13.70;;;;;;;1.56;54.93;102121.56;5005684;28;20025;-71
2022/01/16 01:09:49;;;;;;;34.67;14.85;;;;;;;1.47;55.06;102120.56;5005882;28;20045;-70
2022/01/16 01:12:26;;;;;;;34.75;13.13;;;;;;;1.65;54.52;102112.28;5004726;28;20041;-71
2022/01/16 01:15:09;;;;;;;31.75;12.77;;;;;;;2.09;53.71;102100.97;5005894;28;20549;-70
2022/01/16 01:17:44;;;;;;;29.10;12.35;;;;;;;1.96;54.22;102086.16;5006106;28;20068;-71
2022/01/16 01:20:12;;;;;;;33.58;12.60;;;;;;;1.56;55.64;102112.13;5020703;28;20046;-70
2022/01/16 01:22:37;;;;;;;33.03;12.50;;;;;;;2.01;54.01;102102.53;5005421;28;20041;-70
2022/01/16 01:25:08;;;;;;;35.50;12.95;;;;;;;2.16;53.76;102117.41;5002872;28;20041;-70
2022/01/16 01:27:37;;;;;;;26.80;12.73;;;;;;;1.65;54.95;102107.13;5005577;28;20138;-72
2022/01/16 01:30:06;;;;;;;28.40;12.23;;;;;;;1.89;54.00;102119.56;5023040;28;20433;-71
2022/01/16 01:32:37;;;;;;;37.67;13.95;;;;;;;0.87;56.72;102113.38;5008026;28;20076;-71
2022/01/16 01:35:05;;;;;;;29.92;13.07;;;;;;;1.07;55.92;102121.50;5007985;28;20489;-70
2022/01/16 01:37:31;;;;;;;33.90;13.65;;;;;;;1.32;55.21;102113.38;4992266;28;20384;-71
2022/01/16 01:39:56;;;;;;;31.73;11.60;;;;;;;1.37;54.82;102130.63;4996572;28;20049;-71
2022/01/16 01:42:29;;;;;;;30.70;12.65;;;;;;;1.77;53.90;102118.47;5004490;28;20485;-71
2022/01/16 01:53:13;;;;;;;31.45;13.95;;;;;;;2.02;53.15;102020.06;5021110;28;20033;-72
2022/01/16 01:55:42;;;;;;;33.05;11.45;;;;;;;1.82;53.61;102014.63;5004130;28;20494;-71
2022/01/16 01:58:10;;;;;;;27.00;9.83;;;;;;;0.81;55.74;102029.16;4984173;28;20220;-72
2022/01/16 02:00:38;;;;;;;33.92;14.57;;;;;;;1.15;54.67;102013.47;5019521;28;20418;-72
2022/01/16 02:03:19;;;;;;;33.33;13.75;;;;;;;0.39;57.14;102017.22;5006346;28;20038;-71
2022/01/16 02:05:47;;;;;;;39.17;12.07;;;;;;;0.87;55.39;102026.72;5004968;28;20025;-71
2022/01/16 02:08:16;;;;;;;39.55;12.70;;;;;;;1.39;54.02;102025.91;4989453;28;20111;-72
2022/01/16 02:10:42;;;;;;;33.60;13.20;;;;;;;0.94;55.13;102047.44;5009841;28;20030;-71
2022/01/16 02:13:11;;;;;;;41.20;14.60;;;;;;;0.91;55.48;102053.41;5003678;28;20592;-72
2022/01/16 02:31:57;;;;;;;35.05;14.38;;;;;;;1.04;55.28;102063.09;5005648;28;20148;-71
2022/01/16 02:34:38;;;;;;;47.78;15.27;;;;;;;0.66;56.32;102068.34;5005427;28;20037;-71
2022/01/16 02:37:08;;;;;;;41.83;13.25;;;;;;;1.25;54.52;102079.78;5006101;28;20036;-71
2022/01/16 02:39:36;;;;;;;45.00;14.35;;;;;;;1.29;54.23;102077.28;5004189;28;20616;-71
2022/01/16 02:42:09;;;;;;;36.42;13.52;;;;;;;0.83;55.06;102081.53;5005510;28;20034;-71
2022/01/16 02:44:44;;;;;;;33.42;12.60;;;;;;;1.55;53.58;102063.13;5004576;28;20049;-71
2022/01/16 02:47:13;;;;;;;38.95;12.60;;;;;;;1.47;53.61;102069.03;5008502;28;20452;-72
2022/01/16 02:49:41;;;;;;;44.42;12.68;;;;;;;1.49;52.86;102063.91;5009177;28;20154;-72
2022/01/16 02:52:08;;;;;;;34.20;11.93;;;;;;;1.07;53.83;102063.13;5008331;28;20038;-71
2022/01/16 02:54:40;;;;;;;42.55;12.75;;;;;;;0.63;54.77;102068.28;5003764;28;20064;-71
2022/01/16 02:57:08;;;;;;;45.03;12.88;;;;;;;-0.06;57.23;102074.47;5006135;28;20495;-73
2022/01/16 02:59:34;;;;;;;44.70;13.88;;;;;;;0.08;57.03;102061.97;5022366;28;20041;-74
2022/01/16 03:02:01;;;;;;;45.22;14.00;;;;;;;0.43;55.72;102056.72;5010049;28;20057;-72
2022/01/16 03:04:28;;;;;;;49.42;15.43;;;;;;;0.67;55.61;102043.47;5024882;28;20544;-73
2022/01/16 03:06:54;;;;;;;38.08;13.10;;;;;;;0.75;54.83;102047.09;5013072;28;20153;-72
2022/01/16 03:09:21;;;;;;;47.75;15.20;;;;;;;0.73;54.77;102037.59;5008434;28;20045;-72
2022/01/16 03:11:51;;;;;;;39.00;14.77;;;;;;;0.42;56.04;102036.97;5005786;28;20495;-71
2022/01/16 03:14:21;;;;;;;42.00;12.30;;;;;;;0.92;54.51;102036.25;5007702;28;20046;-71
2022/01/16 03:16:51;;;;;;;45.67;15.40;;;;;;;0.04;56.63;102039.59;5008467;28;20454;-71
2022/01/16 03:22:04;;;;;;;45.45;13.98;;;;;;;0.01;56.14;102035.25;5009696;28;20211;-71
2022/01/16 03:24:42;;;;;;;52.30;15.65;;;;;;;-0.35;57.46;102037.81;4999919;28;20254;-71
2022/01/16 03:27:19;;;;;;;49.50;15.25;;;;;;;0.01;57.04;102048.09;4993861;28;20042;-71
2022/01/16 03:29:49;;;;;;;57.92;16.05;;;;;;;-0.66;58.72;102044.78;5007660;28;20033;-71
2022/01/16 03:32:17;;;;;;;49.72;16.35;;;;;;;-0.43;58.94;102027.38;5007905;28;20517;-71
2022/01/16 03:34:43;;;;;;;49.42;17.02;;;;;;;-0.07;57.44;102041.06;5013537;28;20609;-71
2022/01/16 03:37:09;;;;;;;46.85;17.83;;;;;;;0.22;57.06;102040.00;5006239;28;20041;-71
2022/01/16 03:39:35;;;;;;;57.97;16.77;;;;;;;0.12;56.79;102032.91;5007513;28;20472;-71
2022/01/16 03:42:01;;;;;;;43.22;15.43;;;;;;;-0.04;57.05;102020.53;5006024;28;20033;-71
2022/01/16 03:44:28;;;;;;;51.53;15.68;;;;;;;0.10;56.24;102008.88;5000868;28;20053;-71
2022/01/16 03:46:54;;;;;;;44.05;15.05;;;;;;;-0.00;56.78;102004.38;5011772;28;20040;-71
2022/01/16 03:49:23;;;;;;;50.20;15.82;;;;;;;-0.21;56.93;101997.06;5007895;28;20367;-71
2022/01/16 03:51:50;;;;;;;45.00;15.57;;;;;;;0.40;54.84;101997.50;5007245;28;20199;-71
2022/01/16 03:54:23;;;;;;;42.10;14.38;;;;;;;0.52;54.58;101991.72;5011931;28;20049;-70
2022/01/16 03:56:51;;;;;;;40.45;14.88;;;;;;;0.40;54.81;101982.06;5006329;28;20041;-71
2022/01/16 03:59:17;;;;;;;38.70;14.98;;;;;;;0.28;54.82;101972.41;5007723;28;20529;-70
2022/01/16 04:01:43;;;;;;;48.60;15.88;;;;;;;0.53;54.21;101975.47;5021481;28;20041;-70
2022/01/16 04:04:11;;;;;;;45.35;13.85;;;;;;;0.46;54.54;101974.47;5012150;28;20049;-70
2022/01/16 04:06:36;;;;;;;47.55;14.80;;;;;;;0.68;54.11;101968.03;5022264;28;20030;-70
2022/01/16 04:09:03;;;;;;;51.72;15.75;;;;;;;0.65;54.07;101963.69;5005771;28;20045;-70
2022/01/16 04:11:30;;;;;;;65.00;18.35;;;;;;;0.64;54.06;101981.69;5006529;28;20037;-70
2022/01/16 04:14:10;;;;;;;51.33;15.82;;;;;;;0.41;55.03;101974.38;5006028;28;20042;-70
2022/01/16 04:16:37;;;;;;;52.83;17.52;;;;;;;0.51;54.12;101974.56;5009297;28;20041;-71
2022/01/16 04:19:04;;;;;;;55.22;16.38;;;;;;;0.21;54.88;101975.66;5010630;28;20328;-70
2022/01/16 04:21:30;;;;;;;55.28;15.95;;;;;;;0.46;54.52;101970.19;5007042;28;20770;-71
2022/01/16 04:24:04;;;;;;;46.38;14.38;;;;;;;0.74;53.47;101964.69;5004375;28;20132;-71
2022/01/16 04:26:29;;;;;;;48.25;15.10;;;;;;;0.39;54.27;101970.91;5014385;28;20116;-70
2022/01/16 04:28:54;;;;;;;57.20;15.75;;;;;;;0.38;54.08;101978.59;5002421;28;20034;-71
2022/01/16 04:31:21;;;;;;;47.53;17.05;;;;;;;-0.03;55.37;101981.19;5010498;28;20037;-70
2022/01/16 04:33:47;;;;;;;47.30;15.55;;;;;;;0.08;55.35;101977.13;5011998;28;20038;-70
2022/01/16 04:36:15;;;;;;;49.22;16.33;;;;;;;0.52;54.48;101978.84;5007729;28;20041;-70
2022/01/16 04:38:48;;;;;;;49.20;16.25;;;;;;;-0.22;56.66;101970.47;5005301;28;20526;-70
2022/01/16 04:44:00;;;;;;;46.38;15.45;;;;;;;-0.07;56.46;101974.22;5019619;28;20502;-72
2022/01/16 04:46:27;;;;;;;49.88;15.65;;;;;;;0.22;55.57;101975.69;5007062;28;20038;-73
2022/01/16 04:48:54;;;;;;;58.53;17.92;;;;;;;0.35;55.60;101973.41;5004514;28;20530;-72
2022/01/16 04:51:21;;;;;;;63.53;18.60;;;;;;;0.34;55.31;101989.66;4989567;28;20049;-73
2022/01/16 04:53:49;;;;;;;55.38;17.52;;;;;;;0.06;55.72;101992.50;5020642;28;20116;-74
2022/01/16 04:56:17;;;;;;;52.58;17.85;;;;;;;0.37;55.04;101987.16;5022407;28;20080;-73
2022/01/16 04:58:45;;;;;;;52.45;16.95;;;;;;;0.13;55.62;101992.66;4990480;28;20148;-73
2022/01/16 05:01:13;;;;;;;54.33;19.25;;;;;;;-0.04;56.29;101980.28;5022371;28;20422;-70
2022/01/16 05:03:41;;;;;;;50.72;16.10;;;;;;;0.12;56.36;101984.03;5010719;28;20049;-73
2022/01/16 05:06:07;;;;;;;57.55;19.00;;;;;;;-0.68;58.25;101973.66;5007176;28;20462;-72
2022/01/16 05:08:33;;;;;;;48.58;16.05;;;;;;;-0.30;56.93;101956.59;5004081;28;20060;-73
2022/01/16 05:10:59;;;;;;;55.70;17.60;;;;;;;-0.07;56.26;101957.09;5006336;28;20037;-73
2022/01/16 05:18:52;;;;;;;59.88;17.50;;;;;;;0.52;55.43;101951.41;4999249;28;20049;-71
2022/01/16 05:21:18;;;;;;;64.72;20.92;;;;;;;0.17;55.69;101937.91;5009516;28;20048;-72
2022/01/16 05:23:47;;;;;;;56.13;19.70;;;;;;;0.12;55.79;101926.63;5004091;28;20273;-72
2022/01/16 05:26:15;;;;;;;60.67;19.55;;;;;;;0.14;56.42;101936.09;5001983;28;20230;-72
2022/01/16 05:28:40;;;;;;;60.22;17.92;;;;;;;0.23;55.95;101931.16;5005393;28;20046;-71
2022/01/16 05:31:09;;;;;;;64.03;19.50;;;;;;;0.32;55.82;101937.31;5007769;28;20300;-72
2022/01/16 05:33:37;;;;;;;55.00;18.60;;;;;;;-0.20;57.60;101943.09;5005161;28;20076;-72
2022/01/16 05:36:03;;;;;;;56.45;19.35;;;;;;;-0.15;57.38;101941.53;5005847;28;20183;-72
2022/01/16 05:38:29;;;;;;;61.55;20.73;;;;;;;-0.08;57.24;101931.34;5012555;28;20402;-72
2022/01/16 05:40:54;;;;;;;62.30;19.95;;;;;;;0.29;56.31;101922.69;5011095;28;20095;-72
2022/01/16 05:43:20;;;;;;;73.88;20.75;;;;;;;-0.19;57.90;101924.31;5006282;28;20183;-72
2022/01/16 05:45:45;;;;;;;62.45;19.30;;;;;;;-0.40;58.64;101923.81;5018585;28;20038;-72
2022/01/16 05:48:10;;;;;;;67.15;20.67;;;;;;;-0.30;57.86;101920.63;5005752;28;20065;-72
2022/01/16 05:50:36;;;;;;;68.00;19.73;;;;;;;0.01;57.46;101918.69;5007641;28;20063;-72
2022/01/16 05:53:02;;;;;;;66.88;21.35;;;;;;;0.35;56.67;101906.53;4994707;28;20493;-72
2022/01/16 05:55:33;;;;;;;62.72;19.25;;;;;;;-0.27;58.43;101906.97;5003574;28;20017;-72
2022/01/16 05:57:59;;;;;;;67.20;21.52;;;;;;;0.01;57.57;101898.13;5003191;28;21372;-72
2022/01/16 06:00:25;;;;;;;53.13;19.27;;;;;;;0.56;56.03;101882.91;5006341;28;20042;-72
2022/01/16 06:02:50;;;;;;;64.10;19.08;;;;;;;0.63;55.94;101893.31;5004064;28;20041;-71
2022/01/16 06:05:16;;;;;;;63.05;20.27;;;;;;;0.07;57.28;101886.25;5011541;28;20061;-72
2022/01/16 06:07:51;;;;;;;60.33;19.80;;;;;;;-0.11;57.84;101885.03;5003571;28;20541;-74
2022/01/16 06:10:19;;;;;;;69.55;21.45;;;;;;;0.18;57.84;101878.75;5002942;28;20503;-72
2022/01/16 06:12:45;;;;;;;71.63;20.60;;;;;;;0.35;57.40;101878.25;4990414;28;20069;-71
2022/01/16 06:15:11;;;;;;;70.95;23.05;;;;;;;-0.08;58.58;101869.66;4985678;28;20049;-73
2022/01/16 06:17:37;;;;;;;80.80;20.80;;;;;;;0.19;57.86;101865.09;5012938;28;20498;-73
2022/01/16 06:20:03;;;;;;;62.40;20.55;;;;;;;0.29;58.03;101873.84;4997835;28;20137;-73
2022/01/16 06:22:28;;;;;;;73.22;22.38;;;;;;;0.52;56.84;101863.09;5020358;28;21230;-72
2022/01/16 06:24:54;;;;;;;62.92;20.52;;;;;;;0.31;57.17;101868.72;4994629;28;20143;-71
2022/01/16 06:27:22;;;;;;;64.47;20.30;;;;;;;0.49;57.29;101869.91;4991517;28;20514;-71
2022/01/16 06:29:47;;;;;;;68.20;19.90;;;;;;;0.39;56.68;101870.59;5003483;28;20049;-71
2022/01/16 06:32:12;;;;;;;69.38;20.02;;;;;;;0.50;56.91;101868.19;5004673;28;20096;-71
2022/01/16 06:34:40;;;;;;;73.35;19.65;;;;;;;0.61;56.67;101876.13;5006967;28;20046;-71
2022/01/16 06:37:06;;;;;;;65.70;18.67;;;;;;;0.34;57.10;101879.06;5008404;28;20045;-72
2022/01/16 06:39:32;;;;;;;70.97;19.65;;;;;;;0.14;58.02;101868.41;5021202;28;20196;-72
2022/01/16 06:41:57;;;;;;;74.32;22.35;;;;;;;-0.13;59.29;101873.00;5017934;28;20041;-71
2022/01/16 06:44:23;;;;;;;82.18;21.73;;;;;;;0.26;57.83;101868.66;5008471;28;20496;-72
2022/01/16 06:46:49;;;;;;;64.85;18.80;;;;;;;0.70;56.80;101863.41;5005387;28;20033;-72
2022/01/16 06:49:14;;;;;;;89.45;22.80;;;;;;;0.43;57.55;101874.94;5026289;28;20141;-72
2022/01/16 06:51:40;;;;;;;67.70;19.63;;;;;;;0.79;56.73;101866.16;5024264;28;20033;-72
2022/01/16 06:54:05;;;;;;;74.72;21.73;;;;;;;0.59;57.08;101870.06;5007797;28;20542;-73
2022/01/16 06:56:31;;;;;;;74.05;20.73;;;;;;;0.41;57.14;101870.63;5012215;28;20030;-72
2022/01/16 06:58:57;;;;;;;78.93;22.00;;;;;;;0.90;56.81;101876.59;4993479;28;20411;-73
2022/01/16 07:01:26;;;;;;;81.88;21.45;;;;;;;-0.01;58.49;101886.97;4999410;28;20037;-73
2022/01/16 07:03:55;;;;;;;72.43;20.63;;;;;;;-0.04;59.76;101887.75;5022829;28;20053;-73
2022/01/16 07:06:25;;;;;;;77.32;22.55;;;;;;;0.35;58.39;101885.97;5023839;28;20053;-74
2022/01/16 07:08:53;;;;;;;73.80;20.67;;;;;;;0.67;57.15;101883.94;5007884;28;20608;-74
2022/01/16 07:11:19;;;;;;;84.25;22.23;;;;;;;0.58;57.68;101894.94;5007923;28;20033;-72
2022/01/16 07:13:45;;;;;;;70.45;23.20;;;;;;;-0.03;60.34;101891.22;5009344;28;20050;-72
2022/01/16 07:16:12;;;;;;;70.28;22.35;;;;;;;-0.10;59.92;101894.47;5006243;28;20030;-72
2022/01/16 07:18:38;;;;;;;84.32;22.70;;;;;;;-0.00;59.99;101906.69;4996638;28;20106;-72
2022/01/16 07:21:13;;;;;;;83.88;22.20;;;;;;;0.34;58.99;101889.34;5010092;28;20033;-72
2022/01/16 07:23:43;;;;;;;88.90;23.98;;;;;;;-0.01;59.97;101886.97;5014496;28;20046;-71
2022/01/16 07:26:09;;;;;;;76.80;21.13;;;;;;;0.47;58.74;101886.16;5007411;28;20063;-72
2022/01/16 07:28:35;;;;;;;75.10;19.67;;;;;;;0.69;58.49;101884.84;5015650;28;20716;-74
2022/01/16 07:31:00;;;;;;;89.10;22.63;;;;;;;0.32;59.34;101885.88;5009549;28;20136;-74
2022/01/16 07:33:26;;;;;;;80.50;21.42;;;;;;;0.45;58.79;101888.69;5007319;28;20048;-74
2022/01/16 07:35:51;;;;;;;73.75;22.48;;;;;;;0.27;59.74;101896.06;5014361;28;20368;-74
2022/01/16 07:38:19;;;;;;;85.97;23.10;;;;;;;0.22;60.38;101910.56;4996982;28;20487;-74
2022/01/16 07:40:47;;;;;;;79.57;23.25;;;;;;;0.50;59.12;101922.22;5009246;28;20049;-73
2022/01/16 07:43:13;;;;;;;86.90;23.52;;;;;;;0.41;59.81;101922.06;5021559;28;20049;-72
2022/01/16 07:45:39;;;;;;;81.60;22.70;;;;;;;0.99;57.99;101928.28;5006371;28;20042;-73
2022/01/16 07:48:07;;;;;;;85.18;23.85;;;;;;;0.26;59.95;101928.66;5024327;28;20037;-72
2022/01/16 07:50:33;;;;;;;84.95;22.75;;;;;;;0.55;59.39;101920.63;5013518;28;20044;-71
2022/01/16 07:52:58;;;;;;;84.20;21.75;;;;;;;0.61;59.23;101919.84;5004991;28;20034;-72
2022/01/16 07:55:26;;;;;;;85.53;24.45;;;;;;;0.68;59.30;101925.16;5007582;28;20033;-71
2022/01/16 07:57:55;;;;;;;87.50;24.77;;;;;;;0.82;59.01;101924.53;5008214;28;20445;-71
2022/01/16 08:00:21;;;;;;;84.10;23.42;;;;;;;1.00;58.89;101918.84;5007802;28;20041;-70
2022/01/16 08:02:49;;;;;;;86.05;23.27;;;;;;;0.81;59.09;101912.50;5008435;28;20033;-73
2022/01/16 08:05:16;;;;;;;81.30;21.52;;;;;;;0.74;59.35;101923.53;5007548;28;20057;-72
2022/01/16 08:07:42;;;;;;;78.93;22.63;;;;;;;1.05;58.53;101912.91;5008769;28;20060;-72
2022/01/16 08:10:08;;;;;;;79.88;23.60;;;;;;;0.87;59.17;101905.75;5006897;28;20237;-72
2022/01/16 08:12:34;;;;;;;77.90;24.52;;;;;;;1.35;57.82;101910.78;5023320;28;20037;-69
2022/01/16 08:15:03;;;;;;;75.20;21.20;;;;;;;1.08;58.54;101912.97;5008813;28;20043;-70
2022/01/16 08:17:28;;;;;;;88.40;22.75;;;;;;;1.23;58.11;101911.47;5013041;28;20056;-70
2022/01/16 08:19:56;;;;;;;81.85;22.08;;;;;;;1.17;58.51;101907.09;5010057;28;20049;-71
2022/01/16 08:22:22;;;;;;;92.72;21.77;;;;;;;1.53;57.72;101905.94;5007696;28;20037;-72
2022/01/16 08:24:48;;;;;;;82.95;23.95;;;;;;;1.29;58.49;101906.41;4994115;28;20058;-72
2022/01/16 08:27:15;;;;;;;80.30;23.30;;;;;;;1.14;58.48;101907.03;5013974;28;20029;-72
2022/01/16 08:29:42;;;;;;;85.30;23.42;;;;;;;0.95;59.46;101905.00;5020716;28;20133;-71
2022/01/16 08:32:07;;;;;;;76.03;22.90;;;;;;;1.47;58.31;101911.00;5024223;28;20039;-72
2022/01/16 08:34:33;;;;;;;67.28;22.38;;;;;;;1.55;57.91;101903.38;5010230;28;20054;-73
2022/01/16 08:36:58;;;;;;;74.28;20.90;;;;;;;1.61;57.77;101894.00;5023041;28;20040;-73
2022/01/16 08:39:26;;;;;;;84.50;23.80;;;;;;;0.89;59.21;101905.78;5005463;28;20529;-72
2022/01/16 08:41:52;;;;;;;78.82;23.95;;;;;;;1.04;59.31;101906.03;5010597;28;20029;-73
2022/01/16 08:44:19;;;;;;;68.65;24.10;;;;;;;0.99;59.73;101899.94;4998667;28;20041;-73
2022/01/16 08:46:47;;;;;;;73.65;23.17;;;;;;;1.11;59.60;101892.41;5022166;28;20095;-73
2022/01/16 08:49:14;;;;;;;76.50;23.95;;;;;;;0.98;60.33;101900.78;5024013;28;20057;-73
2022/01/16 08:51:40;;;;;;;82.63;22.67;;;;;;;1.55;58.67;101898.22;4996931;28;20152;-71
2022/01/16 08:54:05;;;;;;;81.13;24.58;;;;;;;1.21;59.78;101897.69;5006569;28;20045;-71
2022/01/16 08:56:31;;;;;;;86.07;23.38;;;;;;;1.53;59.08;101903.38;5005475;28;20033;-71
2022/01/16 08:58:57;;;;;;;90.70;25.88;;;;;;;1.59;59.06;101900.00;5005651;28;20049;-71
2022/01/16 09:01:22;;;;;;;81.75;25.33;;;;;;;1.34;59.33;101889.31;5006042;28;20072;-70
2022/01/16 09:03:50;;;;;;;73.43;24.17;;;;;;;1.64;58.72;101899.22;5006276;28;20049;-71
2022/01/16 09:06:19;;;;;;;91.65;26.80;;;;;;;1.90;58.61;101894.38;5006336;28;20049;-70
2022/01/16 09:08:45;;;;;;;77.65;25.50;;;;;;;1.30;60.60;101897.81;5007204;28;20296;-72
2022/01/16 09:11:11;;;;;;;88.93;25.30;;;;;;;1.77;59.22;101899.38;5008288;28;20940;-71
2022/01/16 09:13:38;;;;;;;83.70;25.58;;;;;;;1.41;60.48;101908.31;4999801;28;20049;-70
2022/01/16 09:16:04;;;;;;;86.97;25.17;;;;;;;2.15;58.19;101902.41;5022238;28;20034;-71
2022/01/16 09:18:33;;;;;;;97.88;24.75;;;;;;;2.07;58.13;101904.06;5006223;28;20045;-73
2022/01/16 09:21:01;;;;;;;79.13;26.90;;;;;;;1.66;59.57;101912.13;5007251;28;20065;-70
2022/01/16 09:23:28;;;;;;;80.30;26.95;;;;;;;2.32;57.66;101893.16;5004272;28;20041;-72
2022/01/16 09:25:53;;;;;;;83.18;26.00;;;;;;;1.74;59.02;101900.22;5020684;28;20152;-70
2022/01/16 09:28:19;;;;;;;93.70;27.17;;;;;;;2.16;58.35;101893.84;5003277;28;20041;-71
2022/01/16 09:30:45;;;;;;;88.95;26.83;;;;;;;1.94;59.18;101898.75;5011387;28;20117;-71
2022/01/16 09:33:11;;;;;;;72.05;25.85;;;;;;;1.70;59.59;101901.88;4999973;28;20072;-70
2022/01/16 09:35:37;;;;;;;86.13;26.35;;;;;;;1.92;58.90;101905.59;5019672;28;20049;-71
2022/01/16 09:38:12;;;;;;;80.32;26.88;;;;;;;2.10;58.82;101906.66;4995124;28;20033;-71
2022/01/16 09:40:44;;;;;;;83.13;26.48;;;;;;;2.09;59.05;101899.78;5005215;28;20032;-70
2022/01/16 09:43:12;;;;;;;75.20;23.98;;;;;;;2.19;58.82;101900.75;5005405;28;20430;-71
2022/01/16 09:45:38;;;;;;;72.68;23.85;;;;;;;1.78;60.16;101903.69;5003034;28;20036;-71
2022/01/16 09:48:04;;;;;;;79.00;24.20;;;;;;;2.45;58.16;101903.63;5003377;28;20025;-71
2022/01/16 09:50:30;;;;;;;87.85;25.80;;;;;;;1.88;59.78;101921.00;5003224;28;20520;-71
2022/01/16 09:52:56;;;;;;;86.70;24.77;;;;;;;2.52;58.14;101918.31;5017333;28;20536;-70
2022/01/16 09:55:22;;;;;;;71.32;24.52;;;;;;;2.66;57.66;101926.19;5002634;28;20125;-71
2022/01/16 09:57:50;;;;;;;73.47;23.77;;;;;;;2.81;57.29;101930.66;5005399;28;20028;-70
2022/01/16 10:00:20;;;;;;;68.15;25.05;;;;;;;2.88;57.14;101929.84;5001647;28;20037;-73
2022/01/16 10:02:48;;;;;;;70.50;22.95;;;;;;;2.79;57.55;101937.50;5004505;28;20739;-72
2022/01/16 10:05:40;;;;;;;66.70;23.67;;;;;;;3.10;56.51;101933.47;5004643;28;20125;-71
2022/01/16 10:08:08;;;;;;;64.43;22.90;;;;;;;3.15;56.80;101935.22;5000489;28;20038;-73
2022/01/16 10:10:41;;;;;;;62.25;22.35;;;;;;;3.10;56.81;101936.94;5003044;28;20118;-71
2022/01/16 10:13:36;;;;;;;67.47;24.40;;;;;;;3.42;56.43;101938.91;5006784;28;20129;-71
2022/01/16 10:16:02;;;;;;;68.53;22.00;;;;;;;3.04;57.44;101936.88;5005842;28;20131;-73
2022/01/16 10:18:41;;;;;;;56.80;21.48;;;;;;;3.65;55.67;101938.19;5007576;28;20053;-72
2022/01/16 10:21:09;;;;;;;65.43;23.13;;;;;;;3.26;57.05;101944.81;5007403;28;20053;-73
2022/01/16 10:23:43;;;;;;;50.72;22.45;;;;;;;3.28;56.90;101943.09;5023205;28;20115;-73
2022/01/16 10:26:20;;;;;;;46.95;19.52;;;;;;;3.32;56.76;101939.72;5006560;28;20495;-74
2022/01/16 10:28:47;;;;;;;53.50;21.02;;;;;;;3.40;56.46;101940.63;5020397;28;20053;-74
2022/01/16 10:31:22;;;;;;;53.70;19.55;;;;;;;3.57;55.90;101939.00;5005486;28;20044;-72
2022/01/16 10:33:49;;;;;;;52.03;19.50;;;;;;;3.92;55.14;101938.34;5018926;28;20507;-74
2022/01/16 10:36:34;;;;;;;45.85;17.73;;;;;;;3.84;55.42;101934.84;5003693;28;20044;-73
2022/01/16 10:39:12;;;;;;;49.92;18.67;;;;;;;3.86;55.06;101933.16;5004321;28;20050;-72
2022/01/16 10:41:38;;;;;;;46.97;19.80;;;;;;;4.00;55.32;101931.47;5021396;28;20471;-72
2022/01/16 10:44:04;;;;;;;32.55;14.68;;;;;;;4.19;54.84;101941.91;4998519;28;20226;-73
2022/01/16 10:46:29;;;;;;;43.53;17.45;;;;;;;3.71;55.71;101943.41;5004940;28;20735;-72
2022/01/16 10:49:33;;;;;;;53.53;17.23;;;;;;;3.15;56.82;101931.78;4986427;28;20199;-72
2022/01/16 10:52:09;;;;;;;39.45;16.00;;;;;;;4.20;54.62;101938.47;4984791;28;20065;-73
2022/01/16 10:54:38;;;;;;;36.65;14.90;;;;;;;3.98;54.79;101933.22;4983730;28;20042;-73
2022/01/16 10:57:24;;;;;;;36.57;15.97;;;;;;;3.89;55.48;101932.28;4995969;28;20427;-72
2022/01/16 11:00:02;;;;;;;31.08;14.02;;;;;;;4.29;54.05;101933.31;5001640;28;20037;-73
2022/01/16 11:02:29;;;;;;;41.03;14.80;;;;;;;4.06;55.05;101929.78;5011100;28;20037;-73
2022/01/16 11:05:07;;;;;;;41.22;13.63;;;;;;;4.48;54.46;101938.56;5001885;28;20037;-72
2022/01/16 11:07:32;;;;;;;35.58;14.65;;;;;;;4.66;54.00;101933.41;5003066;28;20036;-73
2022/01/16 11:09:58;;;;;;;38.40;14.75;;;;;;;4.82;53.39;101937.75;5012200;28;20049;-74
2022/01/16 11:12:24;;;;;;;31.35;14.00;;;;;;;4.53;54.09;101942.03;5004258;28;20061;-73
2022/01/16 11:14:52;;;;;;;33.67;13.55;;;;;;;4.83;53.93;101929.13;4983126;28;20156;-72
2022/01/16 11:17:18;;;;;;;38.55;13.73;;;;;;;4.94;53.52;101930.88;4995327;28;20111;-72
2022/01/16 11:19:43;;;;;;;25.55;13.43;;;;;;;5.20;53.14;101946.44;5016880;28;20515;-73
2022/01/16 11:22:11;;;;;;;34.90;14.75;;;;;;;5.09;53.13;101933.47;5016104;28;20103;-73
2022/01/16 11:25:00;;;;;;;29.77;14.23;;;;;;;5.07;53.12;101930.03;5012777;28;20604;-72
2022/01/16 11:27:26;;;;;;;27.73;13.02;;;;;;;5.24;52.83;101932.63;5024732;28;20104;-69
2022/01/16 11:29:51;;;;;;;29.27;13.77;;;;;;;4.90;53.63;101929.16;5021764;28;20512;-69
2022/01/16 11:32:17;;;;;;;32.03;13.88;;;;;;;4.92;53.69;101935.19;5033366;28;20497;-69
2022/01/16 11:34:43;;;;;;;32.58;12.65;;;;;;;4.76;54.12;101945.50;5021511;28;20091;-69
2022/01/16 11:37:09;;;;;;;35.33;13.68;;;;;;;4.71;53.94;101936.00;5028842;28;20040;-69
2022/01/16 11:39:39;;;;;;;37.80;15.23;;;;;;;5.05;53.13;101936.94;5023221;28;20091;-68
2022/01/16 11:42:15;;;;;;;28.75;14.30;;;;;;;5.09;53.42;101936.06;5032616;28;20059;-69
2022/01/16 11:44:51;;;;;;;27.85;12.48;;;;;;;5.07;53.78;101942.97;5024440;28;20127;-68
2022/01/16 11:47:17;;;;;;;26.52;13.73;;;;;;;5.07;53.48;101940.38;5028468;28;20068;-68
2022/01/16 11:49:42;;;;;;;32.67;13.18;;;;;;;4.49;55.43;101937.69;5027753;28;20110;-69
2022/01/16 11:52:12;;;;;;;22.85;12.43;;;;;;;4.72;54.80;101941.22;5028557;28;20034;-69
2022/01/16 11:54:42;;;;;;;28.27;12.70;;;;;;;4.77;54.48;101944.66;5025751;28;20146;-69
2022/01/16 11:57:23;;;;;;;35.67;14.57;;;;;;;4.74;54.78;101948.97;5025637;28;20037;-69
2022/01/16 11:59:54;;;;;;;34.10;13.25;;;;;;;4.72;54.87;101942.91;5030698;28;20107;-69